sensor_id;sensor_type;location;lat;lon;timestamp;pressure;altitude;pressure_sealevel;temperature
64904;BMP280;51401;48.882;12.598;2024-02-21T00:01:22;64161.94;;;-137.53
64904;BMP280;51401;48.882;12.598;2024-02-21T00:03:47;64161.94;;;-137.53
64904;BMP280;51401;48.882;12.598;2024-02-21T00:06:13;64161.94;;;-137.53
64904;BMP280;51401;48.882;12.598;2024-02-21T00:08:38;64159.94;;;-137.53
64904;BMP280;51401;48.882;12.598;2024-02-21T00:11:03;64161.94;;;-137.53
64904;BMP280;51401;48.882;12.598;2024-02-21T00:13:29;64159.94;;;-137.53
64904;BMP280;51401;48.882;12.598;2024-02-21T00:15:54;64157.97;;;-137.53
64904;BMP280;51401;48.882;12.598;2024-02-21T00:18:20;64159.94;;;-137.53
64904;BMP280;51401;48.882;12.598;2024-02-21T00:20:45;64163.91;;;-137.53
64904;BMP280;51401;48.882;12.598;2024-02-21T00:23:11;64159.94;;;-137.53
64904;BMP280;51401;48.882;12.598;2024-02-21T00:25:37;64161.94;;;-137.53
64904;BMP280;51401;48.882;12.598;2024-02-21T00:28:02;64161.94;;;-137.53
64904;BMP280;51401;48.882;12.598;2024-02-21T00:30:28;64159.94;;;-137.53
64904;BMP280;51401;48.882;12.598;2024-02-21T00:32:53;64161.94;;;-137.53
64904;BMP280;51401;48.882;12.598;2024-02-21T00:35:18;64161.94;;;-137.53
64904;BMP280;51401;48.882;12.598;2024-02-21T00:37:44;64159.94;;;-137.53
64904;BMP280;51401;48.882;12.598;2024-02-21T00:40:09;64163.91;;;-137.53
64904;BMP280;51401;48.882;12.598;2024-02-21T00:42:36;64159.94;;;-137.53
64904;BMP280;51401;48.882;12.598;2024-02-21T00:45:01;64159.94;;;-137.53
64904;BMP280;51401;48.882;12.598;2024-02-21T00:47:26;64163.91;;;-137.53
64904;BMP280;51401;48.882;12.598;2024-02-21T00:49:52;64163.91;;;-137.53
64904;BMP280;51401;48.882;12.598;2024-02-21T00:52:17;64161.94;;;-137.53
64904;BMP280;51401;48.882;12.598;2024-02-21T00:54:43;64163.91;;;-137.53
64904;BMP280;51401;48.882;12.598;2024-02-21T00:57:08;64159.94;;;-137.53
64904;BMP280;51401;48.882;12.598;2024-02-21T00:59:34;64163.91;;;-137.53
64904;BMP280;51401;48.882;12.598;2024-02-21T01:02:00;64159.94;;;-137.53
64904;BMP280;51401;48.882;12.598;2024-02-21T01:04:25;64165.91;;;-137.53
64904;BMP280;51401;48.882;12.598;2024-02-21T01:06:50;64165.91;;;-137.53
64904;BMP280;51401;48.882;12.598;2024-02-21T01:09:15;64159.94;;;-137.53
64904;BMP280;51401;48.882;12.598;2024-02-21T01:11:41;64161.94;;;-137.53
64904;BMP280;51401;48.882;12.598;2024-02-21T01:14:06;64163.91;;;-137.53
64904;BMP280;51401;48.882;12.598;2024-02-21T01:16:31;64161.94;;;-137.53
64904;BMP280;51401;48.882;12.598;2024-02-21T01:18:57;64163.91;;;-137.53
64904;BMP280;51401;48.882;12.598;2024-02-21T01:21:22;64163.91;;;-137.53
64904;BMP280;51401;48.882;12.598;2024-02-21T01:23:48;64163.91;;;-137.53
64904;BMP280;51401;48.882;12.598;2024-02-21T01:26:13;64161.94;;;-137.53
64904;BMP280;51401;48.882;12.598;2024-02-21T01:28:40;64163.91;;;-137.53
64904;BMP280;51401;48.882;12.598;2024-02-21T01:31:06;64161.94;;;-137.53
64904;BMP280;51401;48.882;12.598;2024-02-21T01:33:32;64165.91;;;-137.53
64904;BMP280;51401;48.882;12.598;2024-02-21T01:36:01;64163.91;;;-137.53
64904;BMP280;51401;48.882;12.598;2024-02-21T01:38:27;64167.88;;;-137.53
64904;BMP280;51401;48.882;12.598;2024-02-21T01:40:53;64159.94;;;-137.53
64904;BMP280;51401;48.882;12.598;2024-02-21T01:43:19;64163.91;;;-137.53
64904;BMP280;51401;48.882;12.598;2024-02-21T01:45:50;64161.94;;;-137.53
64904;BMP280;51401;48.882;12.598;2024-02-21T01:48:17;64161.94;;;-137.53
64904;BMP280;51401;48.882;12.598;2024-02-21T01:50:47;64163.91;;;-137.53
64904;BMP280;51401;48.882;12.598;2024-02-21T01:53:15;64163.91;;;-137.53
64904;BMP280;51401;48.882;12.598;2024-02-21T01:55:46;64163.91;;;-137.53
64904;BMP280;51401;48.882;12.598;2024-02-21T01:58:13;64163.91;;;-137.53
64904;BMP280;51401;48.882;12.598;2024-02-21T02:00:42;64163.91;;;-137.53
64904;BMP280;51401;48.882;12.598;2024-02-21T02:03:11;64163.91;;;-137.53
64904;BMP280;51401;48.882;12.598;2024-02-21T02:05:45;64161.94;;;-137.53
64904;BMP280;51401;48.882;12.598;2024-02-21T02:08:12;64161.94;;;-137.53
64904;BMP280;51401;48.882;12.598;2024-02-21T02:10:40;64159.94;;;-137.53
64904;BMP280;51401;48.882;12.598;2024-02-21T02:13:05;64163.91;;;-137.53
64904;BMP280;51401;48.882;12.598;2024-02-21T02:15:44;64163.91;;;-137.53
64904;BMP280;51401;48.882;12.598;2024-02-21T02:18:10;64163.91;;;-137.53
64904;BMP280;51401;48.882;12.598;2024-02-21T02:20:36;64165.91;;;-137.53
64904;BMP280;51401;48.882;12.598;2024-02-21T02:23:07;64163.91;;;-137.53
64904;BMP280;51401;48.882;12.598;2024-02-21T02:25:33;64163.91;;;-137.53
64904;BMP280;51401;48.882;12.598;2024-02-21T02:27:59;64165.91;;;-137.53
64904;BMP280;51401;48.882;12.598;2024-02-21T02:30:25;64163.91;;;-137.53
64904;BMP280;51401;48.882;12.598;2024-02-21T02:32:50;64165.91;;;-137.53
64904;BMP280;51401;48.882;12.598;2024-02-21T02:35:15;64163.91;;;-137.53
64904;BMP280;51401;48.882;12.598;2024-02-21T02:37:47;64165.91;;;-137.53
64904;BMP280;51401;48.882;12.598;2024-02-21T02:40:13;64167.88;;;-137.53
64904;BMP280;51401;48.882;12.598;2024-02-21T02:42:38;64165.91;;;-137.53
64904;BMP280;51401;48.882;12.598;2024-02-21T02:45:03;64165.91;;;-137.53
64904;BMP280;51401;48.882;12.598;2024-02-21T02:47:29;64161.94;;;-137.53
64904;BMP280;51401;48.882;12.598;2024-02-21T02:49:54;64165.91;;;-137.53
64904;BMP280;51401;48.882;12.598;2024-02-21T02:52:19;64161.94;;;-137.53
64904;BMP280;51401;48.882;12.598;2024-02-21T02:54:45;64167.88;;;-137.53
64904;BMP280;51401;48.882;12.598;2024-02-21T02:57:10;64163.91;;;-137.53
64904;BMP280;51401;48.882;12.598;2024-02-21T02:59:36;64167.88;;;-137.53
64904;BMP280;51401;48.882;12.598;2024-02-21T03:02:01;64163.91;;;-137.53
64904;BMP280;51401;48.882;12.598;2024-02-21T03:04:26;64163.91;;;-137.53
64904;BMP280;51401;48.882;12.598;2024-02-21T03:06:52;64163.91;;;-137.53
64904;BMP280;51401;48.882;12.598;2024-02-21T03:09:17;64165.91;;;-137.53
64904;BMP280;51401;48.882;12.598;2024-02-21T03:11:42;64167.88;;;-137.53
64904;BMP280;51401;48.882;12.598;2024-02-21T03:14:09;64163.91;;;-137.53
64904;BMP280;51401;48.882;12.598;2024-02-21T03:16:34;64161.94;;;-137.53
64904;BMP280;51401;48.882;12.598;2024-02-21T03:19:00;64167.88;;;-137.53
64904;BMP280;51401;48.882;12.598;2024-02-21T03:21:25;64163.91;;;-137.53
64904;BMP280;51401;48.882;12.598;2024-02-21T03:23:50;64163.91;;;-137.53
64904;BMP280;51401;48.882;12.598;2024-02-21T03:26:15;64161.94;;;-137.53
64904;BMP280;51401;48.882;12.598;2024-02-21T03:28:42;64163.91;;;-137.53
64904;BMP280;51401;48.882;12.598;2024-02-21T03:31:11;64163.91;;;-137.53
64904;BMP280;51401;48.882;12.598;2024-02-21T03:33:36;64161.94;;;-137.53
64904;BMP280;51401;48.882;12.598;2024-02-21T03:36:01;64161.94;;;-137.53
64904;BMP280;51401;48.882;12.598;2024-02-21T03:38:27;64165.91;;;-137.53
64904;BMP280;51401;48.882;12.598;2024-02-21T03:40:52;64163.91;;;-137.53
64904;BMP280;51401;48.882;12.598;2024-02-21T03:43:18;64165.91;;;-137.53
64904;BMP280;51401;48.882;12.598;2024-02-21T03:45:43;64161.94;;;-137.53
64904;BMP280;51401;48.882;12.598;2024-02-21T03:48:08;64163.91;;;-137.53
64904;BMP280;51401;48.882;12.598;2024-02-21T03:50:34;64163.91;;;-137.53
64904;BMP280;51401;48.882;12.598;2024-02-21T03:52:59;64163.91;;;-137.53
64904;BMP280;51401;48.882;12.598;2024-02-21T03:55:24;64161.94;;;-137.53
64904;BMP280;51401;48.882;12.598;2024-02-21T03:58:02;64167.88;;;-137.53
64904;BMP280;51401;48.882;12.598;2024-02-21T04:00:27;64161.94;;;-137.53
64904;BMP280;51401;48.882;12.598;2024-02-21T04:02:52;64159.94;;;-137.53
64904;BMP280;51401;48.882;12.598;2024-02-21T04:05:18;64163.91;;;-137.53
64904;BMP280;51401;48.882;12.598;2024-02-21T04:07:43;64165.91;;;-137.53
64904;BMP280;51401;48.882;12.598;2024-02-21T04:10:08;64159.94;;;-137.53
64904;BMP280;51401;48.882;12.598;2024-02-21T04:12:34;64163.91;;;-137.53
64904;BMP280;51401;48.882;12.598;2024-02-21T04:15:00;64165.91;;;-137.53
64904;BMP280;51401;48.882;12.598;2024-02-21T04:17:25;64163.91;;;-137.53
64904;BMP280;51401;48.882;12.598;2024-02-21T04:19:53;64161.94;;;-137.53
64904;BMP280;51401;48.882;12.598;2024-02-21T04:22:26;64163.91;;;-137.53
64904;BMP280;51401;48.882;12.598;2024-02-21T04:24:51;64163.91;;;-137.53
64904;BMP280;51401;48.882;12.598;2024-02-21T04:27:16;64159.94;;;-137.53
64904;BMP280;51401;48.882;12.598;2024-02-21T04:29:41;64163.91;;;-137.53
64904;BMP280;51401;48.882;12.598;2024-02-21T04:32:07;64161.94;;;-137.53
64904;BMP280;51401;48.882;12.598;2024-02-21T04:34:33;64159.94;;;-137.53
64904;BMP280;51401;48.882;12.598;2024-02-21T04:36:58;64163.91;;;-137.53
64904;BMP280;51401;48.882;12.598;2024-02-21T04:39:23;64163.91;;;-137.53
64904;BMP280;51401;48.882;12.598;2024-02-21T04:41:49;64163.91;;;-137.53
64904;BMP280;51401;48.882;12.598;2024-02-21T04:44:14;64161.94;;;-137.53
64904;BMP280;51401;48.882;12.598;2024-02-21T04:46:44;64165.91;;;-137.53
64904;BMP280;51401;48.882;12.598;2024-02-21T04:49:09;64161.94;;;-137.53
64904;BMP280;51401;48.882;12.598;2024-02-21T04:51:34;64163.91;;;-137.53
64904;BMP280;51401;48.882;12.598;2024-02-21T04:53:59;64163.91;;;-137.53
64904;BMP280;51401;48.882;12.598;2024-02-21T04:56:25;64163.91;;;-137.53
64904;BMP280;51401;48.882;12.598;2024-02-21T04:58:50;64159.94;;;-137.53
64904;BMP280;51401;48.882;12.598;2024-02-21T05:01:15;64161.94;;;-137.53
64904;BMP280;51401;48.882;12.598;2024-02-21T05:03:40;64163.91;;;-137.53
64904;BMP280;51401;48.882;12.598;2024-02-21T05:06:06;64163.91;;;-137.53
64904;BMP280;51401;48.882;12.598;2024-02-21T05:08:31;64163.91;;;-137.53
64904;BMP280;51401;48.882;12.598;2024-02-21T05:10:56;64161.94;;;-137.53
64904;BMP280;51401;48.882;12.598;2024-02-21T05:13:21;64163.91;;;-137.53
64904;BMP280;51401;48.882;12.598;2024-02-21T05:15:47;64165.91;;;-137.53
64904;BMP280;51401;48.882;12.598;2024-02-21T05:18:12;64161.94;;;-137.53
64904;BMP280;51401;48.882;12.598;2024-02-21T05:20:38;64163.91;;;-137.53
64904;BMP280;51401;48.882;12.598;2024-02-21T05:23:03;64163.91;;;-137.53
64904;BMP280;51401;48.882;12.598;2024-02-21T05:25:29;64165.91;;;-137.53
64904;BMP280;51401;48.882;12.598;2024-02-21T05:27:54;64159.94;;;-137.53
64904;BMP280;51401;48.882;12.598;2024-02-21T05:30:20;64159.94;;;-137.53
64904;BMP280;51401;48.882;12.598;2024-02-21T05:32:46;64161.94;;;-137.53
64904;BMP280;51401;48.882;12.598;2024-02-21T05:35:11;64161.94;;;-137.53
64904;BMP280;51401;48.882;12.598;2024-02-21T05:37:36;64167.88;;;-137.53
64904;BMP280;51401;48.882;12.598;2024-02-21T05:40:02;64163.91;;;-137.53
64904;BMP280;51401;48.882;12.598;2024-02-21T05:42:27;64165.91;;;-137.53
64904;BMP280;51401;48.882;12.598;2024-02-21T05:44:52;64163.91;;;-137.53
64904;BMP280;51401;48.882;12.598;2024-02-21T05:47:18;64165.91;;;-137.53
64904;BMP280;51401;48.882;12.598;2024-02-21T05:49:45;64163.91;;;-137.53
64904;BMP280;51401;48.882;12.598;2024-02-21T05:52:10;64163.91;;;-137.53
64904;BMP280;51401;48.882;12.598;2024-02-21T05:54:39;64163.91;;;-137.53
64904;BMP280;51401;48.882;12.598;2024-02-21T05:57:05;64163.91;;;-137.53
64904;BMP280;51401;48.882;12.598;2024-02-21T05:59:31;64163.91;;;-137.53
64904;BMP280;51401;48.882;12.598;2024-02-21T06:01:57;64159.94;;;-137.53
64904;BMP280;51401;48.882;12.598;2024-02-21T06:04:23;64161.94;;;-137.53
64904;BMP280;51401;48.882;12.598;2024-02-21T06:06:48;64161.94;;;-137.53
64904;BMP280;51401;48.882;12.598;2024-02-21T06:09:13;64161.94;;;-137.53
64904;BMP280;51401;48.882;12.598;2024-02-21T06:11:38;64163.91;;;-137.53
64904;BMP280;51401;48.882;12.598;2024-02-21T06:14:04;64163.91;;;-137.53
64904;BMP280;51401;48.882;12.598;2024-02-21T06:16:29;64161.94;;;-137.53
64904;BMP280;51401;48.882;12.598;2024-02-21T06:18:54;64161.94;;;-137.53
64904;BMP280;51401;48.882;12.598;2024-02-21T06:21:19;64165.91;;;-137.53
64904;BMP280;51401;48.882;12.598;2024-02-21T06:23:45;64163.91;;;-137.53
64904;BMP280;51401;48.882;12.598;2024-02-21T06:26:10;64163.91;;;-137.53
64904;BMP280;51401;48.882;12.598;2024-02-21T06:28:35;64161.94;;;-137.53
64904;BMP280;51401;48.882;12.598;2024-02-21T06:31:00;64163.91;;;-137.53
64904;BMP280;51401;48.882;12.598;2024-02-21T06:33:26;64163.91;;;-137.53
64904;BMP280;51401;48.882;12.598;2024-02-21T06:35:51;64163.91;;;-137.53
64904;BMP280;51401;48.882;12.598;2024-02-21T06:38:18;64163.91;;;-137.53
64904;BMP280;51401;48.882;12.598;2024-02-21T06:40:44;64163.91;;;-137.53
64904;BMP280;51401;48.882;12.598;2024-02-21T06:43:14;64163.91;;;-137.53
64904;BMP280;51401;48.882;12.598;2024-02-21T06:45:39;64163.91;;;-137.53
64904;BMP280;51401;48.882;12.598;2024-02-21T06:48:05;64159.94;;;-137.53
64904;BMP280;51401;48.882;12.598;2024-02-21T06:50:30;64165.91;;;-137.53
64904;BMP280;51401;48.882;12.598;2024-02-21T06:52:55;64163.91;;;-137.53
64904;BMP280;51401;48.882;12.598;2024-02-21T06:55:20;64159.94;;;-137.53
64904;BMP280;51401;48.882;12.598;2024-02-21T06:57:46;64159.94;;;-137.53
64904;BMP280;51401;48.882;12.598;2024-02-21T07:00:13;64159.94;;;-137.53
64904;BMP280;51401;48.882;12.598;2024-02-21T07:02:39;64159.94;;;-137.53
64904;BMP280;51401;48.882;12.598;2024-02-21T07:05:04;64159.94;;;-137.53
64904;BMP280;51401;48.882;12.598;2024-02-21T07:07:30;64159.94;;;-137.53
64904;BMP280;51401;48.882;12.598;2024-02-21T07:09:55;64157.97;;;-137.53
64904;BMP280;51401;48.882;12.598;2024-02-21T07:12:20;64155.97;;;-137.53
64904;BMP280;51401;48.882;12.598;2024-02-21T07:14:46;64157.97;;;-137.53
64904;BMP280;51401;48.882;12.598;2024-02-21T07:17:11;64159.94;;;-137.53
64904;BMP280;51401;48.882;12.598;2024-02-21T07:19:36;64159.94;;;-137.53
64904;BMP280;51401;48.882;12.598;2024-02-21T07:22:02;64159.94;;;-137.53
64904;BMP280;51401;48.882;12.598;2024-02-21T07:24:28;64159.94;;;-137.53
64904;BMP280;51401;48.882;12.598;2024-02-21T07:26:53;64155.97;;;-137.53
64904;BMP280;51401;48.882;12.598;2024-02-21T07:29:18;64159.94;;;-137.53
64904;BMP280;51401;48.882;12.598;2024-02-21T07:31:44;64159.94;;;-137.53
64904;BMP280;51401;48.882;12.598;2024-02-21T07:34:09;64157.97;;;-137.53
64904;BMP280;51401;48.882;12.598;2024-02-21T07:36:35;64159.94;;;-137.53
64904;BMP280;51401;48.882;12.598;2024-02-21T07:39:02;64155.97;;;-137.53
64904;BMP280;51401;48.882;12.598;2024-02-21T07:41:28;64154.00;;;-137.53
64904;BMP280;51401;48.882;12.598;2024-02-21T07:43:55;64154.00;;;-137.53
64904;BMP280;51401;48.882;12.598;2024-02-21T07:46:20;64155.97;;;-137.53
64904;BMP280;51401;48.882;12.598;2024-02-21T07:48:46;64157.97;;;-137.53
64904;BMP280;51401;48.882;12.598;2024-02-21T07:51:11;64154.00;;;-137.53
64904;BMP280;51401;48.882;12.598;2024-02-21T07:53:38;64155.97;;;-137.53
64904;BMP280;51401;48.882;12.598;2024-02-21T07:56:04;64157.97;;;-137.53
64904;BMP280;51401;48.882;12.598;2024-02-21T07:58:29;64155.97;;;-137.53
64904;BMP280;51401;48.882;12.598;2024-02-21T08:00:54;64157.97;;;-137.53
64904;BMP280;51401;48.882;12.598;2024-02-21T08:03:20;64157.97;;;-137.53
64904;BMP280;51401;48.882;12.598;2024-02-21T08:05:45;64154.00;;;-137.53
64904;BMP280;51401;48.882;12.598;2024-02-21T08:08:11;64155.97;;;-137.53
64904;BMP280;51401;48.882;12.598;2024-02-21T08:10:39;64157.97;;;-137.53
64904;BMP280;51401;48.882;12.598;2024-02-21T08:13:04;64155.97;;;-137.53
64904;BMP280;51401;48.882;12.598;2024-02-21T08:15:29;64155.97;;;-137.53
64904;BMP280;51401;48.882;12.598;2024-02-21T08:17:57;64155.97;;;-137.53
64904;BMP280;51401;48.882;12.598;2024-02-21T08:20:26;64155.97;;;-137.53
64904;BMP280;51401;48.882;12.598;2024-02-21T08:22:51;64159.94;;;-137.53
64904;BMP280;51401;48.882;12.598;2024-02-21T08:25:17;64155.97;;;-137.53
64904;BMP280;51401;48.882;12.598;2024-02-21T08:27:42;64150.03;;;-137.53
64904;BMP280;51401;48.882;12.598;2024-02-21T08:30:08;64148.03;;;-137.53
64904;BMP280;51401;48.882;12.598;2024-02-21T08:32:34;64150.03;;;-137.53
64904;BMP280;51401;48.882;12.598;2024-02-21T08:35:01;64152.00;;;-137.53
64904;BMP280;51401;48.882;12.598;2024-02-21T08:37:29;64150.03;;;-137.53
64904;BMP280;51401;48.882;12.598;2024-02-21T08:39:55;64150.03;;;-137.53
64904;BMP280;51401;48.882;12.598;2024-02-21T08:42:20;64146.03;;;-137.53
64904;BMP280;51401;48.882;12.598;2024-02-21T08:44:45;64150.03;;;-137.53
64904;BMP280;51401;48.882;12.598;2024-02-21T08:47:11;64148.03;;;-137.53
64904;BMP280;51401;48.882;12.598;2024-02-21T08:49:37;64150.03;;;-137.53
64904;BMP280;51401;48.882;12.598;2024-02-21T08:52:03;64148.03;;;-137.53
64904;BMP280;51401;48.882;12.598;2024-02-21T08:54:28;64148.03;;;-137.53
64904;BMP280;51401;48.882;12.598;2024-02-21T08:56:54;64148.03;;;-137.53
64904;BMP280;51401;48.882;12.598;2024-02-21T08:59:20;64146.03;;;-137.53
64904;BMP280;51401;48.882;12.598;2024-02-21T09:01:46;64144.06;;;-137.53
64904;BMP280;51401;48.882;12.598;2024-02-21T09:04:11;64146.03;;;-137.53
64904;BMP280;51401;48.882;12.598;2024-02-21T09:06:37;64148.03;;;-137.53
64904;BMP280;51401;48.882;12.598;2024-02-21T09:09:06;64144.06;;;-137.53
64904;BMP280;51401;48.882;12.598;2024-02-21T09:11:33;64144.06;;;-137.53
64904;BMP280;51401;48.882;12.598;2024-02-21T09:13:58;64146.03;;;-137.53
64904;BMP280;51401;48.882;12.598;2024-02-21T09:16:24;64144.06;;;-137.53
64904;BMP280;51401;48.882;12.598;2024-02-21T09:18:49;64142.06;;;-137.53
64904;BMP280;51401;48.882;12.598;2024-02-21T09:21:14;64142.06;;;-137.53
64904;BMP280;51401;48.882;12.598;2024-02-21T09:23:39;64142.06;;;-137.53
64904;BMP280;51401;48.882;12.598;2024-02-21T09:26:05;64146.03;;;-137.53
64904;BMP280;51401;48.882;12.598;2024-02-21T09:28:35;64144.06;;;-137.53
64904;BMP280;51401;48.882;12.598;2024-02-21T09:31:00;64144.06;;;-137.53
64904;BMP280;51401;48.882;12.598;2024-02-21T09:33:27;64142.06;;;-137.53
64904;BMP280;51401;48.882;12.598;2024-02-21T09:35:52;64144.06;;;-137.53
64904;BMP280;51401;48.882;12.598;2024-02-21T09:38:18;64142.06;;;-137.53
64904;BMP280;51401;48.882;12.598;2024-02-21T09:40:43;64142.06;;;-137.53
64904;BMP280;51401;48.882;12.598;2024-02-21T09:43:09;64140.09;;;-137.53
64904;BMP280;51401;48.882;12.598;2024-02-21T09:45:34;64140.09;;;-137.53
64904;BMP280;51401;48.882;12.598;2024-02-21T09:51:07;64144.06;;;-137.53
64904;BMP280;51401;48.882;12.598;2024-02-21T09:53:32;64144.06;;;-137.53
64904;BMP280;51401;48.882;12.598;2024-02-21T09:55:59;64146.03;;;-137.53
64904;BMP280;51401;48.882;12.598;2024-02-21T09:58:25;64140.09;;;-137.53
64904;BMP280;51401;48.882;12.598;2024-02-21T10:00:52;64142.06;;;-137.53
64904;BMP280;51401;48.882;12.598;2024-02-21T10:03:17;64138.09;;;-137.53
64904;BMP280;51401;48.882;12.598;2024-02-21T10:05:47;64144.06;;;-137.53
64904;BMP280;51401;48.882;12.598;2024-02-21T10:08:16;64140.09;;;-137.53
64904;BMP280;51401;48.882;12.598;2024-02-21T10:10:45;64140.09;;;-137.53
64904;BMP280;51401;48.882;12.598;2024-02-21T10:13:10;64138.09;;;-137.53
64904;BMP280;51401;48.882;12.598;2024-02-21T10:15:36;64138.09;;;-137.53
64904;BMP280;51401;48.882;12.598;2024-02-21T10:18:02;64136.13;;;-137.53
64904;BMP280;51401;48.882;12.598;2024-02-21T10:20:32;64134.13;;;-137.53
64904;BMP280;51401;48.882;12.598;2024-02-21T10:23:04;64136.13;;;-137.53
64904;BMP280;51401;48.882;12.598;2024-02-21T10:25:34;64136.13;;;-137.53
64904;BMP280;51401;48.882;12.598;2024-02-21T10:28:01;64136.13;;;-137.53
64904;BMP280;51401;48.882;12.598;2024-02-21T10:30:26;64132.16;;;-137.53
64904;BMP280;51401;48.882;12.598;2024-02-21T10:32:55;64136.13;;;-137.53
64904;BMP280;51401;48.882;12.598;2024-02-21T10:37:53;64136.13;;;-137.53
64904;BMP280;51401;48.882;12.598;2024-02-21T10:40:24;64136.13;;;-137.53
64904;BMP280;51401;48.882;12.598;2024-02-21T10:42:58;64140.09;;;-137.53
64904;BMP280;51401;48.882;12.598;2024-02-21T10:45:31;64136.13;;;-137.53
64904;BMP280;51401;48.882;12.598;2024-02-21T10:48:06;64136.13;;;-137.53
64904;BMP280;51401;48.882;12.598;2024-02-21T10:50:40;64136.13;;;-137.53
64904;BMP280;51401;48.882;12.598;2024-02-21T10:53:20;64132.16;;;-137.53
64904;BMP280;51401;48.882;12.598;2024-02-21T10:55:56;64136.13;;;-137.53
64904;BMP280;51401;48.882;12.598;2024-02-21T10:58:24;64136.13;;;-137.53
64904;BMP280;51401;48.882;12.598;2024-02-21T11:00:51;64132.16;;;-137.53
64904;BMP280;51401;48.882;12.598;2024-02-21T11:03:16;64130.16;;;-137.53
64904;BMP280;51401;48.882;12.598;2024-02-21T11:05:42;64136.13;;;-137.53
64904;BMP280;51401;48.882;12.598;2024-02-21T11:08:10;64134.13;;;-137.53
64904;BMP280;51401;48.882;12.598;2024-02-21T11:10:36;64132.16;;;-137.53
64904;BMP280;51401;48.882;12.598;2024-02-21T11:13:08;64128.19;;;-137.53
64904;BMP280;51401;48.882;12.598;2024-02-21T11:15:34;64130.16;;;-137.53
64904;BMP280;51401;48.882;12.598;2024-02-21T11:17:59;64134.13;;;-137.53
64904;BMP280;51401;48.882;12.598;2024-02-21T11:20:35;64132.16;;;-137.53
64904;BMP280;51401;48.882;12.598;2024-02-21T11:23:01;64132.16;;;-137.53
64904;BMP280;51401;48.882;12.598;2024-02-21T11:25:27;64136.13;;;-137.53
64904;BMP280;51401;48.882;12.598;2024-02-21T11:28:04;64134.13;;;-137.53
64904;BMP280;51401;48.882;12.598;2024-02-21T11:30:30;64136.13;;;-137.53
64904;BMP280;51401;48.882;12.598;2024-02-21T11:33:06;64134.13;;;-137.53
64904;BMP280;51401;48.882;12.598;2024-02-21T11:35:35;64132.16;;;-137.53
64904;BMP280;51401;48.882;12.598;2024-02-21T11:38:08;64136.13;;;-137.53
64904;BMP280;51401;48.882;12.598;2024-02-21T11:40:34;64134.13;;;-137.53
64904;BMP280;51401;48.882;12.598;2024-02-21T11:43:00;64134.13;;;-137.53
64904;BMP280;51401;48.882;12.598;2024-02-21T11:45:25;64136.13;;;-137.53
64904;BMP280;51401;48.882;12.598;2024-02-21T11:47:51;64134.13;;;-137.53
64904;BMP280;51401;48.882;12.598;2024-02-21T11:50:16;64132.16;;;-137.53
64904;BMP280;51401;48.882;12.598;2024-02-21T11:52:42;64140.09;;;-137.53
64904;BMP280;51401;48.882;12.598;2024-02-21T11:55:07;64138.09;;;-137.53
64904;BMP280;51401;48.882;12.598;2024-02-21T11:57:33;64138.09;;;-137.53
64904;BMP280;51401;48.882;12.598;2024-02-21T12:00:11;64140.09;;;-137.53
64904;BMP280;51401;48.882;12.598;2024-02-21T12:02:37;64138.09;;;-137.53
64904;BMP280;51401;48.882;12.598;2024-02-21T12:05:03;64138.09;;;-137.53
64904;BMP280;51401;48.882;12.598;2024-02-21T12:07:30;64136.13;;;-137.53
64904;BMP280;51401;48.882;12.598;2024-02-21T12:09:59;64134.13;;;-137.53
64904;BMP280;51401;48.882;12.598;2024-02-21T12:12:25;64136.13;;;-137.53
64904;BMP280;51401;48.882;12.598;2024-02-21T12:14:55;64136.13;;;-137.53
64904;BMP280;51401;48.882;12.598;2024-02-21T12:17:21;64136.13;;;-137.53
64904;BMP280;51401;48.882;12.598;2024-02-21T12:19:46;64132.16;;;-137.53
64904;BMP280;51401;48.882;12.598;2024-02-21T12:22:17;64132.16;;;-137.53
64904;BMP280;51401;48.882;12.598;2024-02-21T12:24:43;64140.09;;;-137.53
64904;BMP280;51401;48.882;12.598;2024-02-21T12:27:12;64136.13;;;-137.53
64904;BMP280;51401;48.882;12.598;2024-02-21T12:29:37;64134.13;;;-137.53
64904;BMP280;51401;48.882;12.598;2024-02-21T12:32:03;64134.13;;;-137.53
64904;BMP280;51401;48.882;12.598;2024-02-21T12:34:29;64132.16;;;-137.53
64904;BMP280;51401;48.882;12.598;2024-02-21T12:36:58;64136.13;;;-137.53
64904;BMP280;51401;48.882;12.598;2024-02-21T12:39:23;64138.09;;;-137.53
64904;BMP280;51401;48.882;12.598;2024-02-21T12:41:48;64138.09;;;-137.53
64904;BMP280;51401;48.882;12.598;2024-02-21T12:44:14;64136.13;;;-137.53
64904;BMP280;51401;48.882;12.598;2024-02-21T12:46:41;64132.16;;;-137.53
64904;BMP280;51401;48.882;12.598;2024-02-21T12:49:07;64132.16;;;-137.53
64904;BMP280;51401;48.882;12.598;2024-02-21T12:51:33;64134.13;;;-137.53
64904;BMP280;51401;48.882;12.598;2024-02-21T12:53:59;64136.13;;;-137.53
64904;BMP280;51401;48.882;12.598;2024-02-21T12:56:25;64136.13;;;-137.53
64904;BMP280;51401;48.882;12.598;2024-02-21T12:58:52;64136.13;;;-137.53
64904;BMP280;51401;48.882;12.598;2024-02-21T13:01:17;64132.16;;;-137.53
64904;BMP280;51401;48.882;12.598;2024-02-21T13:03:43;64132.16;;;-137.53
64904;BMP280;51401;48.882;12.598;2024-02-21T13:06:08;64132.16;;;-137.53
64904;BMP280;51401;48.882;12.598;2024-02-21T13:08:36;64134.13;;;-137.53
64904;BMP280;51401;48.882;12.598;2024-02-21T13:11:01;64140.09;;;-137.53
64904;BMP280;51401;48.882;12.598;2024-02-21T13:13:26;64138.09;;;-137.53
64904;BMP280;51401;48.882;12.598;2024-02-21T13:15:52;64136.13;;;-137.53
64904;BMP280;51401;48.882;12.598;2024-02-21T13:18:17;64140.09;;;-137.53
64904;BMP280;51401;48.882;12.598;2024-02-21T13:20:42;64138.09;;;-137.53
64904;BMP280;51401;48.882;12.598;2024-02-21T13:23:08;64140.09;;;-137.53
64904;BMP280;51401;48.882;12.598;2024-02-21T13:25:33;64138.09;;;-137.53
64904;BMP280;51401;48.882;12.598;2024-02-21T13:27:58;64138.09;;;-137.53
64904;BMP280;51401;48.882;12.598;2024-02-21T13:30:24;64136.13;;;-137.53
64904;BMP280;51401;48.882;12.598;2024-02-21T13:32:50;64136.13;;;-137.53